Time;durP1;ratioP1;P1;durP2;ratioP2;P2;SDS_P1;SDS_P2;PMS_P1;PMS_P2;Temp;Humidity;BMP_temperature;BMP_pressure;BME280_temperature;BME280_humidity;BME280_pressure;Samples;Min_cycle;Max_cycle;Signal;HPM_P1;HPM_P2
2023/05/02 00:01:58;;;;;;;2.33;1.20;;;;;;;16.43;66.98;100769.38;4921883;29;20046;-64
2023/05/02 00:04:24;;;;;;;1.80;0.98;;;;;;;16.38;68.05;100774.41;4954258;29;20123;-65
2023/05/02 00:06:52;;;;;;;1.08;0.70;;;;;;;16.31;68.98;100774.41;4936764;29;20102;-65
2023/05/02 00:09:18;;;;;;;2.65;1.02;;;;;;;16.33;69.20;100774.81;4954270;29;20031;-64
2023/05/02 00:11:43;;;;;;;2.50;1.10;;;;;;;16.09;70.74;100771.72;4950758;29;20500;-65
2023/05/02 00:14:09;;;;;;;2.85;1.27;;;;;;;16.14;70.62;100770.56;4954376;28;20034;-65
2023/05/02 00:16:35;;;;;;;1.88;1.15;;;;;;;16.08;71.49;100775.63;4936571;29;20413;-65
2023/05/02 00:19:00;;;;;;;3.10;1.48;;;;;;;16.19;71.28;100779.09;4932156;29;20039;-65
2023/05/02 00:21:28;;;;;;;3.17;1.15;;;;;;;16.11;72.00;100776.75;4936851;29;20057;-65
2023/05/02 00:23:55;;;;;;;2.53;1.00;;;;;;;16.07;71.90;100779.47;4953994;28;20050;-65
2023/05/02 00:26:22;;;;;;;2.30;1.83;;;;;;;16.00;72.57;100776.78;4948993;28;20460;-63
2023/05/02 00:28:48;;;;;;;2.75;1.38;;;;;;;15.94;73.35;100762.03;4953109;28;20407;-65
2023/05/02 00:31:14;;;;;;;3.90;1.83;;;;;;;15.91;73.92;100772.91;4935913;29;20032;-65
2023/05/02 00:33:39;;;;;;;3.00;1.95;;;;;;;15.93;74.47;100768.59;4952017;28;20081;-64
2023/05/02 00:36:15;;;;;;;2.47;1.27;;;;;;;16.01;73.92;100775.59;4930544;29;20118;-64
2023/05/02 00:38:41;;;;;;;4.05;2.30;;;;;;;15.98;74.64;100787.25;4954113;29;20024;-65
2023/05/02 00:41:06;;;;;;;2.65;1.73;;;;;;;16.04;74.11;100774.84;4933371;29;20511;-65
2023/05/02 00:43:32;;;;;;;5.22;2.55;;;;;;;16.07;74.14;100775.97;4952341;23;20070;-57
2023/05/02 00:45:58;;;;;;;6.88;2.22;;;;;;;16.09;74.09;100779.09;4971967;28;20042;-60
2023/05/02 00:48:24;;;;;;;1.90;1.10;;;;;;;16.05;74.55;100779.09;4969342;28;20050;-55
2023/05/02 00:50:50;;;;;;;9.63;1.92;;;;;;;15.85;75.74;100783.34;4954813;28;20044;-60
2023/05/02 00:53:15;;;;;;;2.55;1.67;;;;;;;15.95;75.10;100787.25;4945928;28;20038;-51
2023/05/02 00:55:41;;;;;;;5.22;2.20;;;;;;;16.02;74.69;100784.53;4944887;28;20089;-58
2023/05/02 00:58:15;;;;;;;3.10;1.90;;;;;;;15.94;75.04;100783.75;4947674;29;20505;-55
2023/05/02 01:00:44;;;;;;;3.47;1.63;;;;;;;15.89;75.61;100777.94;4945104;28;20432;-54
2023/05/02 01:03:31;;;;;;;2.08;1.40;;;;;;;15.77;76.45;100772.88;4969026;28;20113;-54
2023/05/02 01:06:15;;;;;;;4.57;1.58;;;;;;;15.87;76.02;100780.25;4951846;28;20409;-58
2023/05/02 01:09:12;;;;;;;2.13;1.35;;;;;;;15.84;76.21;100770.94;4941693;29;20035;-56
2023/05/02 01:11:52;;;;;;;2.83;1.48;;;;;;;15.92;75.88;100769.78;4962342;28;20513;-54
2023/05/02 01:14:20;;;;;;;3.10;1.63;;;;;;;15.90;76.34;100766.69;4968221;28;20034;-57
2023/05/02 01:16:47;;;;;;;3.38;1.65;;;;;;;15.92;76.77;100769.00;4971457;28;20078;-57
2023/05/02 01:19:25;;;;;;;3.58;1.67;;;;;;;15.92;76.33;100774.44;4971647;28;20192;-57
2023/05/02 01:21:53;;;;;;;3.03;1.42;;;;;;;15.82;76.63;100764.34;4968996;28;20035;-57
2023/05/02 01:24:26;;;;;;;4.32;1.70;;;;;;;15.79;77.34;100768.63;4954347;28;20039;-59
2023/05/02 01:27:46;;;;;;;5.47;2.28;;;;;;;15.78;77.42;100764.34;4952547;28;20452;-57
2023/05/02 01:30:16;;;;;;;2.83;1.65;;;;;;;15.74;78.20;100768.97;4862588;29;20111;-60
2023/05/02 01:32:45;;;;;;;2.58;1.50;;;;;;;15.89;77.20;100770.53;4952748;28;20053;-60
2023/05/02 01:35:14;;;;;;;5.43;1.42;;;;;;;15.93;76.93;100781.44;4968873;28;20035;-62
2023/05/02 01:37:43;;;;;;;6.15;1.55;;;;;;;15.83;77.18;100776.75;4966056;28;20095;-60
2023/05/02 01:40:12;;;;;;;3.05;1.50;;;;;;;15.83;76.83;100772.09;4953424;28;20478;-60
2023/05/02 01:42:40;;;;;;;2.42;1.67;;;;;;;15.83;77.65;100774.03;4953241;28;20030;-59
2023/05/02 01:45:07;;;;;;;1.70;1.02;;;;;;;15.83;77.64;100771.34;4960309;28;20031;-59
2023/05/02 01:47:38;;;;;;;2.13;1.30;;;;;;;15.86;77.95;100776.75;4963860;28;20035;-60
2023/05/02 01:50:06;;;;;;;4.22;1.48;;;;;;;15.93;77.14;100782.19;4971404;28;20036;-60
2023/05/02 01:52:33;;;;;;;3.78;1.65;;;;;;;15.82;77.64;100778.69;4954150;28;20022;-60
2023/05/02 01:54:59;;;;;;;2.88;1.67;;;;;;;15.80;77.83;100778.31;4948095;28;20386;-60
2023/05/02 01:57:26;;;;;;;3.00;1.27;;;;;;;15.76;78.35;100784.88;4967853;28;20113;-61
2023/05/02 01:59:55;;;;;;;2.65;1.38;;;;;;;15.82;78.02;100777.91;4952804;28;20027;-60
2023/05/02 02:02:25;;;;;;;3.30;1.38;;;;;;;15.76;78.52;100791.09;4951228;28;20077;-59
2023/05/02 02:04:54;;;;;;;4.78;2.05;;;;;;;15.76;78.62;100785.66;4943617;29;20074;-60
2023/05/02 02:07:19;;;;;;;4.45;2.03;;;;;;;15.87;78.25;100783.72;4962660;28;20023;-59
2023/05/02 02:09:45;;;;;;;3.15;1.67;;;;;;;15.80;78.42;100788.38;4949337;28;20094;-60
2023/05/02 02:12:26;;;;;;;2.42;1.45;;;;;;;15.76;79.10;100796.53;4960947;28;20106;-61
2023/05/02 02:15:26;;;;;;;3.15;1.33;;;;;;;15.71;78.95;100796.91;4948385;28;20034;-59
2023/05/02 02:17:59;;;;;;;0.77;0.73;;;;;;;15.68;79.68;100791.50;4942753;28;20086;-59
2023/05/02 02:20:28;;;;;;;0.75;0.60;;;;;;;15.76;78.97;100798.47;4953159;28;20034;-60
2023/05/02 02:22:56;;;;;;;1.75;0.90;;;;;;;15.59;79.46;100800.00;4968223;28;20025;-60
2023/05/02 02:25:24;;;;;;;5.80;1.48;;;;;;;15.54;80.38;100799.59;4956746;28;20080;-59
2023/05/02 02:27:52;;;;;;;2.47;0.80;;;;;;;15.60;80.52;100798.81;4965888;28;20042;-61
2023/05/02 02:30:19;;;;;;;1.75;1.00;;;;;;;15.51;81.36;100803.06;4966225;28;20041;-61
2023/05/02 02:32:45;;;;;;;1.48;0.52;;;;;;;15.49;81.95;100799.97;4946889;28;20030;-60
2023/05/02 02:35:10;;;;;;;5.32;0.70;;;;;;;15.69;80.99;100810.09;4952354;28;20069;-60
2023/05/02 02:38:33;;;;;;;1.88;0.40;;;;;;;15.54;81.30;100813.97;4953123;28;20055;-60
2023/05/02 02:41:10;;;;;;;2.65;1.38;;;;;;;15.53;81.86;100806.97;4875559;29;20037;-60
2023/05/02 02:43:42;;;;;;;2.30;1.02;;;;;;;15.35;82.54;100816.94;4890970;29;20167;-60
2023/05/02 02:46:33;;;;;;;0.55;0.50;;;;;;;15.23;84.01;100822.72;4890338;29;20060;-59
2023/05/02 02:49:22;;;;;;;0.50;0.50;;;;;;;15.23;83.69;100822.72;4881246;29;20045;-60
2023/05/02 02:52:22;;;;;;;1.17;0.70;;;;;;;15.24;84.20;100835.13;4873335;29;20051;-58
2023/05/02 02:54:58;;;;;;;1.38;0.82;;;;;;;15.21;85.38;100823.09;4875361;29;20527;-60
2023/05/02 02:57:32;;;;;;;0.98;0.85;;;;;;;15.34;85.31;100837.91;4871620;29;20089;-60
2023/05/02 03:00:10;;;;;;;0.68;0.47;;;;;;;15.29;85.18;100840.22;4861421;29;20062;-60
2023/05/02 03:02:36;;;;;;;0.45;0.40;;;;;;;15.33;84.42;100852.63;4881526;29;20047;-59
2023/05/02 03:05:04;;;;;;;1.00;0.77;;;;;;;15.20;85.46;100843.25;4881071;29;20040;-60
2023/05/02 03:07:30;;;;;;;1.00;0.80;;;;;;;15.19;85.07;100849.06;4874709;29;20377;-60
2023/05/02 03:09:57;;;;;;;3.08;0.80;;;;;;;15.16;85.53;100861.44;4873168;29;20088;-61
2023/05/02 03:12:23;;;;;;;2.65;0.55;;;;;;;15.28;85.00;100860.34;4941940;28;20051;-59
2023/05/02 03:14:49;;;;;;;0.85;0.40;;;;;;;15.30;83.99;100872.38;4941685;28;20031;-59
2023/05/02 03:17:16;;;;;;;0.68;0.50;;;;;;;15.20;84.09;100880.47;4957250;28;20030;-61
2023/05/02 03:19:41;;;;;;;0.57;0.50;;;;;;;15.14;84.02;100887.41;4953726;28;20039;-58
2023/05/02 03:22:07;;;;;;;0.68;0.50;;;;;;;15.05;83.41;100895.09;4953379;28;20035;-58
2023/05/02 03:24:34;;;;;;;0.20;0.20;;;;;;;14.80;83.49;100900.38;4951494;28;20035;-59
2023/05/02 03:27:01;;;;;;;0.75;0.22;;;;;;;14.63;83.81;100905.66;4946812;28;20429;-55
2023/05/02 03:29:32;;;;;;;;;;;;;;;14.45;83.84;100917.16;4947523;28;20489;-60
2023/05/02 03:31:58;;;;;;;0.85;0.52;;;;;;;14.63;81.97;100916.50;4936106;28;19925;-58
2023/05/02 03:34:24;;;;;;;0.90;0.75;;;;;;;14.53;82.19;100923.41;4955689;28;20034;-58
2023/05/02 03:36:51;;;;;;;0.20;0.20;;;;;;;14.51;81.62;100933.06;4955894;28;20034;-59
2023/05/02 03:39:16;;;;;;;0.30;0.30;;;;;;;14.54;80.60;100932.31;4956610;28;20018;-59
2023/05/02 03:41:43;;;;;;;0.73;0.50;;;;;;;14.31;81.09;100940.59;4952351;28;20509;-58
2023/05/02 03:44:13;;;;;;;0.60;0.60;;;;;;;14.20;80.86;100948.63;4956091;28;20086;-59
2023/05/02 03:46:38;;;;;;;0.55;0.32;;;;;;;14.20;81.59;100954.03;4966383;28;20118;-59
2023/05/02 03:49:07;;;;;;;0.40;0.22;;;;;;;14.16;78.17;100969.47;4949272;28;20034;-60
2023/05/02 03:51:34;;;;;;;1.75;0.43;;;;;;;13.93;78.55;100970.75;4954861;28;20085;-57
2023/05/02 03:54:01;;;;;;;0.30;0.30;;;;;;;13.74;78.53;100977.09;4948337;29;20046;-59
2023/05/02 03:56:27;;;;;;;0.93;0.68;;;;;;;13.71;79.24;100979.72;4964287;28;20038;-59
2023/05/02 03:59:07;;;;;;;4.90;0.55;;;;;;;13.56;78.02;100978.78;4956771;28;20085;-57
2023/05/02 04:01:33;;;;;;;0.30;0.30;;;;;;;13.54;76.90;100984.56;4951792;28;20030;-59
2023/05/02 04:04:00;;;;;;;4.78;0.50;;;;;;;13.55;76.15;100988.03;4956073;28;20034;-59
2023/05/02 04:06:30;;;;;;;5.25;0.32;;;;;;;13.49;74.85;100989.53;4943492;28;20035;-59
2023/05/02 04:08:59;;;;;;;2.03;0.63;;;;;;;13.44;74.86;101001.44;4967573;28;20450;-57
2023/05/02 04:11:29;;;;;;;0.82;0.82;;;;;;;13.35;75.07;101005.53;4951492;28;20030;-57
2023/05/02 04:13:55;;;;;;;0.60;0.60;;;;;;;13.32;75.59;101012.44;4954666;28;20035;-59
2023/05/02 04:16:21;;;;;;;2.10;0.40;;;;;;;13.28;75.11;101011.63;4965209;28;20035;-60
2023/05/02 04:18:46;;;;;;;0.55;0.50;;;;;;;13.29;74.43;101007.78;4955760;28;20387;-60
2023/05/02 04:21:12;;;;;;;1.05;0.50;;;;;;;13.24;75.17;101018.91;4955929;28;20051;-61
2023/05/02 04:23:38;;;;;;;0.65;0.50;;;;;;;13.45;74.01;101021.91;4947196;28;20082;-60
2023/05/02 04:26:05;;;;;;;1.13;0.50;;;;;;;13.32;74.15;101033.31;4955223;28;20030;-59
2023/05/02 04:28:51;;;;;;;4.68;0.75;;;;;;;13.55;72.20;101032.13;4967231;28;20133;-59
2023/05/02 04:31:16;;;;;;;3.50;0.47;;;;;;;13.42;71.53;101047.00;4955507;28;20122;-60
2023/05/02 04:33:44;;;;;;;0.10;0.10;;;;;;;13.35;71.11;101048.81;4955410;28;20050;-60
2023/05/02 04:36:10;;;;;;;6.72;0.40;;;;;;;13.22;71.75;101053.63;4946376;28;20027;-57
2023/05/02 04:38:39;;;;;;;0.10;0.10;;;;;;;13.03;72.34;101059.13;4955023;28;20027;-59
2023/05/02 04:41:06;;;;;;;0.40;0.40;;;;;;;13.04;72.93;101071.50;4947786;28;20394;-59
2023/05/02 04:43:38;;;;;;;0.73;0.52;;;;;;;13.03;71.86;101066.41;4952462;28;20453;-59
2023/05/02 04:46:04;;;;;;;0.68;0.68;;;;;;;12.91;71.44;101072.00;4942354;29;20037;-59
2023/05/02 04:48:33;;;;;;;0.88;0.38;;;;;;;13.05;70.50;101080.38;4953754;28;20034;-60
2023/05/02 04:50:58;;;;;;;2.05;0.47;;;;;;;13.02;69.78;101089.97;4952692;28;20440;-59
2023/05/02 04:53:25;;;;;;;1.00;0.52;;;;;;;12.88;68.85;101095.13;4952457;28;20023;-60
2023/05/02 04:55:51;;;;;;;0.55;0.35;;;;;;;12.61;69.21;101099.66;4954741;28;20038;-58
2023/05/02 04:58:17;;;;;;;0.45;0.45;;;;;;;12.64;70.45;101107.03;4950958;28;20030;-59
2023/05/02 05:00:46;;;;;;;0.93;0.77;;;;;;;12.78;70.05;101111.94;4949380;28;20023;-58
2023/05/02 05:03:12;;;;;;;4.70;0.68;;;;;;;12.91;69.44;101129.53;4966544;28;20105;-57
2023/05/02 05:05:37;;;;;;;2.92;0.35;;;;;;;12.88;69.59;101124.88;4961222;28;20026;-56
2023/05/02 05:08:06;;;;;;;0.57;0.57;;;;;;;12.95;68.55;101118.81;4954854;28;20027;-60
2023/05/02 05:10:34;;;;;;;0.50;0.47;;;;;;;12.90;69.11;101116.41;4958268;28;20042;-59
2023/05/02 05:13:01;;;;;;;0.57;0.57;;;;;;;12.89;69.07;101117.56;4952319;28;20078;-61
2023/05/02 05:15:26;;;;;;;0.70;0.30;;;;;;;12.87;68.01;101119.81;4954232;28;20548;-59
2023/05/02 05:17:56;;;;;;;1.23;0.65;;;;;;;12.81;68.00;101129.38;4947194;28;20039;-58
2023/05/02 05:20:22;;;;;;;0.65;0.65;;;;;;;12.79;68.27;101135.13;4950605;28;20031;-58
2023/05/02 05:22:50;;;;;;;0.50;0.50;;;;;;;13.02;67.01;101133.25;4943633;28;20054;-59
2023/05/02 05:25:18;;;;;;;0.20;0.20;;;;;;;13.08;66.65;101144.56;4950539;28;20509;-59
2023/05/02 05:27:45;;;;;;;0.47;0.47;;;;;;;13.01;67.67;101144.41;4940855;28;20042;-58
2023/05/02 05:30:11;;;;;;;0.40;0.40;;;;;;;12.85;66.93;101160.75;4938250;28;20019;-59
2023/05/02 05:32:38;;;;;;;0.57;0.32;;;;;;;12.82;64.94;101160.66;4950851;28;20414;-59
2023/05/02 05:35:04;;;;;;;0.28;0.28;;;;;;;12.77;63.50;101158.25;4947445;28;20034;-58
2023/05/02 05:37:30;;;;;;;1.08;0.68;;;;;;;12.67;63.36;101157.69;4956889;28;20031;-60
2023/05/02 05:39:57;;;;;;;0.35;0.35;;;;;;;12.89;62.15;101163.50;4966458;28;20027;-58
2023/05/02 05:42:26;;;;;;;0.38;0.38;;;;;;;12.86;60.08;101165.00;4949757;28;20094;-61
2023/05/02 05:44:56;;;;;;;0.50;0.45;;;;;;;12.86;59.63;101178.50;4949108;28;20058;-60
2023/05/02 05:47:22;;;;;;;0.40;0.40;;;;;;;12.79;59.25;101183.00;4941734;28;20132;-59
2023/05/02 05:49:55;;;;;;;0.30;0.30;;;;;;;12.99;59.27;101189.97;4952812;28;20564;-59
2023/05/02 05:52:23;;;;;;;0.30;0.30;;;;;;;12.93;59.15;101194.09;4960826;28;20494;-60
2023/05/02 05:54:55;;;;;;;4.18;0.28;;;;;;;12.89;58.76;101193.25;4944119;28;20031;-60
2023/05/02 05:57:21;;;;;;;3.17;0.60;;;;;;;12.82;59.17;101199.28;4943061;28;20402;-60
2023/05/02 05:59:47;;;;;;;1.35;0.40;;;;;;;12.61;59.27;101196.94;4952794;28;20034;-59
2023/05/02 06:02:15;;;;;;;0.30;0.30;;;;;;;12.55;59.44;101203.75;4950512;28;20122;-59
2023/05/02 06:04:41;;;;;;;1.48;0.50;;;;;;;12.64;59.66;101209.72;4966356;28;20045;-61
2023/05/02 06:07:07;;;;;;;1.50;0.80;;;;;;;12.69;59.95;101220.28;4940663;28;20035;-61
2023/05/02 06:09:32;;;;;;;1.63;0.50;;;;;;;12.86;59.01;101221.75;4948003;28;20038;-60
2023/05/02 06:11:58;;;;;;;0.50;0.38;;;;;;;12.91;57.76;101226.09;4950316;28;20050;-60
2023/05/02 06:14:23;;;;;;;0.82;0.65;;;;;;;12.82;58.27;101239.03;4946945;28;20125;-60
2023/05/02 06:16:50;;;;;;;0.47;0.47;;;;;;;12.56;59.60;101229.63;4955336;28;20113;-60
2023/05/02 06:19:16;;;;;;;0.45;0.45;;;;;;;12.71;60.00;101236.13;4941365;28;20146;-60
2023/05/02 06:21:41;;;;;;;0.40;0.40;;;;;;;12.90;59.71;101236.13;4940824;29;20027;-59
2023/05/02 06:24:07;;;;;;;0.32;0.30;;;;;;;12.76;60.07;101237.75;4966429;28;20401;-61
2023/05/02 06:26:32;;;;;;;2.55;0.85;;;;;;;12.74;60.94;101242.75;4952311;28;20057;-59
2023/05/02 06:28:58;;;;;;;0.93;0.43;;;;;;;12.79;60.05;101245.16;4968877;28;20034;-60
2023/05/02 06:31:23;;;;;;;0.52;0.52;;;;;;;12.87;58.63;101244.97;4965951;28;20023;-60
2023/05/02 06:33:49;;;;;;;0.93;0.93;;;;;;;12.98;57.85;101255.97;4967138;28;20047;-60
2023/05/02 06:36:14;;;;;;;0.45;0.30;;;;;;;12.83;58.10;101259.53;4970308;28;20405;-61
2023/05/02 06:38:40;;;;;;;3.47;0.45;;;;;;;12.89;57.63;101266.22;4970540;28;20117;-61
2023/05/02 06:41:05;;;;;;;1.45;0.63;;;;;;;12.85;58.33;101262.66;4946838;28;20031;-58
2023/05/02 06:43:31;;;;;;;1.23;0.50;;;;;;;12.86;58.17;101273.13;4980143;22;20444;-57
2023/05/02 06:45:57;;;;;;;0.20;0.20;;;;;;;12.83;58.65;101281.16;4961556;28;20049;-58
2023/05/02 06:48:23;;;;;;;0.60;0.50;;;;;;;12.82;58.53;101291.19;4950477;28;20478;-57
2023/05/02 06:50:51;;;;;;;0.63;0.52;;;;;;;12.90;57.48;101289.41;4950898;28;20045;-55
2023/05/02 06:53:17;;;;;;;0.32;0.32;;;;;;;12.93;57.41;101296.81;4929371;28;20034;-57
2023/05/02 06:55:43;;;;;;;0.30;0.30;;;;;;;12.75;57.96;101301.84;4937275;28;20047;-58
2023/05/02 06:58:09;;;;;;;0.47;0.40;;;;;;;12.82;57.37;101302.00;4947923;28;20193;-58
2023/05/02 07:00:34;;;;;;;0.60;0.50;;;;;;;12.94;57.18;101309.19;4949582;29;20134;-54
2023/05/02 07:03:00;;;;;;;0.30;0.30;;;;;;;12.90;56.60;101309.13;4951272;28;20059;-58
2023/05/02 07:05:25;;;;;;;1.15;0.52;;;;;;;12.87;56.81;101314.47;4937338;28;20049;-55
2023/05/02 07:07:51;;;;;;;0.52;0.50;;;;;;;12.98;56.20;101326.28;4928384;29;20040;-54
2023/05/02 07:10:16;;;;;;;1.10;0.70;;;;;;;13.02;55.80;101325.22;4950489;28;20401;-57
2023/05/02 07:12:41;;;;;;;0.30;0.30;;;;;;;12.93;56.09;101329.28;4944446;28;20153;-57
2023/05/02 07:15:07;;;;;;;0.50;0.50;;;;;;;12.85;56.08;101325.63;4947540;28;20053;-59
2023/05/02 07:17:33;;;;;;;2.00;0.68;;;;;;;12.73;56.23;101325.75;4944403;28;20477;-56
2023/05/02 07:19:59;;;;;;;0.45;0.45;;;;;;;12.70;56.68;101338.03;4953660;28;20422;-57
2023/05/02 07:22:25;;;;;;;0.85;0.50;;;;;;;12.88;55.40;101333.03;4953740;28;20039;-56
2023/05/02 07:25:16;;;;;;;0.47;0.45;;;;;;;12.80;54.64;101342.09;4939355;28;20046;-55
2023/05/02 07:27:45;;;;;;;0.43;0.43;;;;;;;12.86;53.57;101340.69;4927565;29;20126;-57
2023/05/02 07:30:13;;;;;;;0.60;0.45;;;;;;;12.70;54.33;101332.63;4944003;28;20050;-57
2023/05/02 07:32:39;;;;;;;0.63;0.63;;;;;;;12.72;54.31;101351.19;4953442;28;20478;-58
2023/05/02 07:35:05;;;;;;;1.67;0.82;;;;;;;12.85;53.70;101346.47;4939221;28;20066;-57
2023/05/02 07:37:33;;;;;;;1.67;1.55;;;;;;;12.79;53.83;101345.16;4935265;28;20059;-57
2023/05/02 07:39:58;;;;;;;1.05;1.05;;;;;;;12.85;54.33;101355.38;4949420;28;20507;-56
2023/05/02 07:42:28;;;;;;;0.28;0.28;;;;;;;12.77;54.09;101358.25;4946568;28;20062;-57
2023/05/02 07:44:54;;;;;;;2.00;0.45;;;;;;;12.85;54.32;101368.09;4948271;28;20114;-58
2023/05/02 07:47:20;;;;;;;0.32;0.32;;;;;;;12.90;53.89;101357.00;4945466;28;20162;-58
2023/05/02 07:49:50;;;;;;;0.25;0.25;;;;;;;13.01;53.52;101366.91;4935987;28;20035;-59
2023/05/02 07:52:16;;;;;;;0.50;0.40;;;;;;;13.06;53.19;101361.25;4940415;28;20486;-57
2023/05/02 07:54:41;;;;;;;0.40;0.40;;;;;;;13.00;53.34;101375.38;4943019;28;20067;-57
2023/05/02 07:57:07;;;;;;;0.40;0.40;;;;;;;13.17;52.87;101373.09;4944448;28;20046;-56
2023/05/02 07:59:33;;;;;;;0.63;0.35;;;;;;;13.12;52.44;101372.59;4937309;28;20094;-57
2023/05/02 08:01:59;;;;;;;2.28;0.13;;;;;;;13.17;52.50;101375.00;4946533;28;20027;-57
2023/05/02 08:04:25;;;;;;;0.73;0.20;;;;;;;13.33;52.39;101386.56;4954833;28;20120;-57
2023/05/02 08:06:50;;;;;;;1.27;0.30;;;;;;;13.38;52.49;101380.84;4941243;28;20027;-58
2023/05/02 08:09:16;;;;;;;2.13;1.33;;;;;;;13.56;51.54;101390.91;4949575;28;20529;-57
2023/05/02 08:11:41;;;;;;;0.10;0.10;;;;;;;13.65;51.69;101393.41;4951302;28;20035;-55
2023/05/02 08:14:07;;;;;;;0.35;0.32;;;;;;;13.81;50.95;101401.44;4948287;28;20109;-57
2023/05/02 08:16:32;;;;;;;0.20;0.20;;;;;;;13.81;50.25;101402.22;4941752;28;20141;-58
2023/05/02 08:18:58;;;;;;;0.52;0.32;;;;;;;13.85;50.02;101411.19;4944102;28;20115;-56
2023/05/02 08:21:23;;;;;;;0.40;0.30;;;;;;;13.77;49.53;101414.13;4943968;28;20195;-56
2023/05/02 08:23:49;;;;;;;0.52;0.32;;;;;;;13.82;49.57;101414.59;4946321;28;20441;-57
2023/05/02 08:26:14;;;;;;;0.30;0.30;;;;;;;13.92;48.68;101418.66;4945325;28;20031;-57
2023/05/02 08:28:40;;;;;;;0.82;0.50;;;;;;;13.66;49.29;101422.03;4947263;29;20614;-57
2023/05/02 08:31:05;;;;;;;0.55;0.30;;;;;;;13.72;49.76;101420.63;4943508;28;20035;-57
2023/05/02 08:33:31;;;;;;;0.20;0.20;;;;;;;13.85;49.22;101424.75;4938899;28;20040;-57
2023/05/02 08:35:57;;;;;;;0.30;0.20;;;;;;;13.95;50.06;101424.16;4940463;29;20839;-56
2023/05/02 08:38:22;;;;;;;0.28;0.28;;;;;;;14.15;50.21;101431.09;4941996;28;20060;-58
2023/05/02 08:40:48;;;;;;;0.93;0.28;;;;;;;14.26;49.58;101436.72;4921501;29;20035;-58
2023/05/02 08:43:15;;;;;;;0.10;0.10;;;;;;;14.19;49.90;101437.38;4940802;28;20247;-56
2023/05/02 08:45:44;;;;;;;0.90;0.40;;;;;;;14.35;48.93;101435.38;4930257;29;20103;-56
2023/05/02 08:48:12;;;;;;;0.57;0.20;;;;;;;14.36;48.73;101452.44;4938842;28;20088;-58
2023/05/02 08:50:44;;;;;;;0.45;0.20;;;;;;;14.55;49.64;101443.47;4950366;29;20489;-54
2023/05/02 08:53:11;;;;;;;0.28;0.28;;;;;;;14.73;49.39;101442.59;4939980;28;20110;-58
2023/05/02 08:55:40;;;;;;;0.10;0.10;;;;;;;14.81;48.80;101447.00;4925858;28;20137;-58
2023/05/02 08:58:12;;;;;;;0.00;0.00;;;;;;;14.91;48.60;101451.00;4946126;28;20614;-57
2023/05/02 09:00:39;;;;;;;0.20;0.10;;;;;;;14.99;48.20;101458.13;4948965;28;20126;-58
2023/05/02 09:03:10;;;;;;;0.43;0.43;;;;;;;15.05;48.53;101468.31;4938804;28;20434;-58
2023/05/02 09:05:39;;;;;;;0.20;0.20;;;;;;;15.21;48.27;101460.78;4944815;28;20541;-58
2023/05/02 09:08:06;;;;;;;0.10;0.10;;;;;;;15.21;48.37;101463.50;4942267;28;20046;-57
2023/05/02 09:10:37;;;;;;;0.75;0.30;;;;;;;15.17;47.67;101472.75;4948909;28;20082;-53
2023/05/02 09:13:54;;;;;;;1.27;1.17;;;;;;;15.14;47.97;101476.97;4941344;28;20039;-54
2023/05/02 09:16:22;;;;;;;0.10;0.10;;;;;;;15.27;47.18;101481.03;4927531;29;20054;-56
2023/05/02 09:18:49;;;;;;;0.10;0.10;;;;;;;15.25;46.98;101485.28;4932482;29;20098;-58
2023/05/02 09:21:17;;;;;;;0.55;0.55;;;;;;;15.17;47.16;101480.88;4951217;28;20040;-56
2023/05/02 09:23:45;;;;;;;0.32;0.20;;;;;;;15.26;47.94;101492.25;4940392;28;20742;-56
2023/05/02 09:26:25;;;;;;;0.20;0.20;;;;;;;15.47;47.27;101495.31;4948552;28;20043;-55
2023/05/02 09:28:53;;;;;;;0.28;0.17;;;;;;;15.42;46.59;101497.56;4937656;28;20067;-55
2023/05/02 09:31:24;;;;;;;0.30;0.30;;;;;;;15.32;46.76;101488.09;4942174;29;20069;-54
2023/05/02 09:33:50;;;;;;;0.20;0.20;;;;;;;15.41;46.78;101490.53;4944538;28;20050;-54
2023/05/02 09:36:18;;;;;;;0.20;0.20;;;;;;;15.56;46.22;101501.28;4950336;28;20093;-55
2023/05/02 09:38:46;;;;;;;0.30;0.30;;;;;;;15.54;46.32;101502.78;4944974;28;20023;-53
2023/05/02 09:41:12;;;;;;;0.55;0.32;;;;;;;15.53;46.47;101515.56;4950785;28;20046;-55
2023/05/02 09:43:38;;;;;;;0.60;0.57;;;;;;;15.64;45.72;101510.28;4951460;28;20027;-52
2023/05/02 09:46:09;;;;;;;4.93;0.43;;;;;;;15.59;45.94;101516.03;4940208;28;20471;-51
2023/05/02 09:48:55;;;;;;;2.10;0.40;;;;;;;15.48;45.05;101523.25;4940451;28;20035;-53
2023/05/02 09:51:23;;;;;;;0.52;0.20;;;;;;;15.35;45.89;101509.84;4942736;28;20031;-54
2023/05/02 09:53:49;;;;;;;0.10;0.10;;;;;;;15.46;45.96;101522.81;4942908;28;20494;-51
2023/05/02 09:56:34;;;;;;;0.20;0.20;;;;;;;15.55;46.13;101515.97;4939463;28;20118;-55
2023/05/02 09:59:13;;;;;;;2.15;0.20;;;;;;;15.84;46.81;101520.66;4889926;29;20060;-54
2023/05/02 10:01:41;;;;;;;3.05;0.35;;;;;;;16.22;46.39;101520.31;4891085;29;20105;-56
2023/05/02 10:04:15;;;;;;;0.47;0.30;;;;;;;16.54;45.57;101525.34;4889676;29;20524;-52
2023/05/02 10:06:44;;;;;;;0.30;0.30;;;;;;;17.04;46.23;101517.28;4886869;29;20033;-54
2023/05/02 10:09:11;;;;;;;0.30;0.20;;;;;;;17.47;45.08;101518.34;4887616;29;20079;-57
2023/05/02 10:11:43;;;;;;;0.22;0.20;;;;;;;17.91;45.07;101513.56;4889646;29;20086;-56
2023/05/02 10:14:09;;;;;;;0.80;0.30;;;;;;;18.38;43.73;101514.50;4891012;29;20055;-55
2023/05/02 10:16:37;;;;;;;0.20;0.20;;;;;;;18.60;42.08;101516.88;4874133;29;20131;-56
2023/05/02 10:19:11;;;;;;;1.70;0.30;;;;;;;18.63;42.18;101518.06;4887087;29;20096;-55
2023/05/02 10:21:38;;;;;;;0.20;0.20;;;;;;;18.33;41.93;101517.59;4890118;29;20177;-58
2023/05/02 10:24:05;;;;;;;0.73;0.20;;;;;;;18.33;41.41;101529.28;4891354;29;20108;-57
2023/05/02 10:26:33;;;;;;;0.00;0.00;;;;;;;18.23;41.08;101527.31;4872952;29;20056;-56
2023/05/02 10:28:59;;;;;;;1.15;0.20;;;;;;;18.18;41.80;101526.88;4891322;29;20048;-57
2023/05/02 10:31:26;;;;;;;0.10;0.10;;;;;;;17.99;42.90;101528.00;4888365;29;20039;-55
2023/05/02 10:33:51;;;;;;;0.30;0.13;;;;;;;17.85;43.11;101528.72;4890194;29;20102;-53
2023/05/02 10:36:21;;;;;;;0.68;0.17;;;;;;;17.84;43.08;101540.78;4921360;28;20506;-56
2023/05/02 10:38:47;;;;;;;0.20;0.20;;;;;;;17.64;42.56;101542.22;4950539;28;20032;-55
2023/05/02 10:41:18;;;;;;;0.28;0.20;;;;;;;17.47;42.79;101544.81;4949149;28;20497;-56
2023/05/02 10:43:48;;;;;;;0.35;0.25;;;;;;;17.35;43.30;101539.66;4949165;28;20043;-54
2023/05/02 10:46:33;;;;;;;1.05;0.60;;;;;;;17.14;44.41;101551.19;4944452;28;20034;-55
2023/05/02 10:49:03;;;;;;;0.30;0.15;;;;;;;17.24;43.46;101555.16;4947219;28;20039;-56
2023/05/02 10:51:30;;;;;;;0.38;0.30;;;;;;;17.03;43.92;101558.47;4949070;28;20407;-54
2023/05/02 10:54:18;;;;;;;0.35;0.35;;;;;;;16.94;44.42;101558.78;4938145;28;20041;-54
2023/05/02 10:57:03;;;;;;;0.17;0.17;;;;;;;16.83;45.91;101570.72;4939721;28;20040;-54
2023/05/02 10:59:29;;;;;;;0.20;0.15;;;;;;;16.71;46.38;101568.28;4940365;28;20047;-57
2023/05/02 11:01:56;;;;;;;0.10;0.10;;;;;;;16.76;46.07;101573.38;4934171;28;20031;-51
2023/05/02 11:04:22;;;;;;;3.95;0.30;;;;;;;16.68;46.77;101558.16;4934220;28;20490;-56
2023/05/02 11:06:59;;;;;;;0.20;0.10;;;;;;;16.58;46.65;101564.25;4936834;28;20031;-57
2023/05/02 11:09:28;;;;;;;0.10;0.10;;;;;;;16.73;47.24;101557.78;4931970;29;20054;-51
2023/05/02 11:11:56;;;;;;;0.10;0.10;;;;;;;17.11;47.07;101563.59;4946104;28;20125;-56
2023/05/02 11:14:24;;;;;;;0.20;0.20;;;;;;;17.39;45.60;101563.03;4927910;29;20035;-52
2023/05/02 11:17:05;;;;;;;0.80;0.43;;;;;;;17.95;45.47;101566.16;4934386;28;20497;-53
2023/05/02 11:19:36;;;;;;;0.30;0.28;;;;;;;18.70;43.16;101554.34;4930614;29;20038;-54
2023/05/02 11:22:17;;;;;;;;;;;;;;;19.09;41.78;101556.31;4949454;28;20043;-51
2023/05/02 11:24:46;;;;;;;0.30;0.22;;;;;;;19.29;39.96;101562.97;4943732;28;19926;-52
2023/05/02 11:27:30;;;;;;;0.20;0.20;;;;;;;19.07;39.66;101558.66;4944984;28;20047;-55
2023/05/02 11:29:56;;;;;;;0.13;0.10;;;;;;;18.85;40.47;101560.63;4947582;28;20050;-55
2023/05/02 11:32:22;;;;;;;0.57;0.30;;;;;;;18.66;40.72;101567.19;4949816;28;20053;-53
2023/05/02 11:34:51;;;;;;;0.20;0.20;;;;;;;18.43;41.57;101582.31;4934153;28;20371;-51
2023/05/02 11:37:19;;;;;;;0.40;0.20;;;;;;;18.17;41.92;101568.97;4914526;28;20134;-57